sensor_id;sensor_type;location;lat;lon;timestamp;temperature;humidity
22006;DHT22;11167;46.988;15.470;2022-07-30T00:00:16;25.00;64.20
22006;DHT22;11167;46.988;15.470;2022-07-30T00:02:17;25.00;64.30
22006;DHT22;11167;46.988;15.470;2022-07-30T00:04:19;25.00;64.40
22006;DHT22;11167;46.988;15.470;2022-07-30T00:06:20;25.00;64.30
22006;DHT22;11167;46.988;15.470;2022-07-30T00:08:22;24.90;64.30
22006;DHT22;11167;46.988;15.470;2022-07-30T00:10:23;24.90;64.30
22006;DHT22;11167;46.988;15.470;2022-07-30T00:12:24;24.90;64.40
22006;DHT22;11167;46.988;15.470;2022-07-30T00:14:25;24.90;64.40
22006;DHT22;11167;46.988;15.470;2022-07-30T00:16:26;24.80;64.30
22006;DHT22;11167;46.988;15.470;2022-07-30T00:18:28;24.80;64.40
22006;DHT22;11167;46.988;15.470;2022-07-30T00:20:29;24.80;64.40
22006;DHT22;11167;46.988;15.470;2022-07-30T00:22:30;24.80;64.40
22006;DHT22;11167;46.988;15.470;2022-07-30T00:24:32;24.80;64.40
22006;DHT22;11167;46.988;15.470;2022-07-30T00:26:33;24.70;64.40
22006;DHT22;11167;46.988;15.470;2022-07-30T00:28:34;24.70;64.40
22006;DHT22;11167;46.988;15.470;2022-07-30T00:30:35;24.70;64.40
22006;DHT22;11167;46.988;15.470;2022-07-30T00:32:38;24.60;64.40
22006;DHT22;11167;46.988;15.470;2022-07-30T00:34:40;24.60;64.40
22006;DHT22;11167;46.988;15.470;2022-07-30T00:36:41;24.60;64.40
22006;DHT22;11167;46.988;15.470;2022-07-30T00:38:42;24.60;64.40
22006;DHT22;11167;46.988;15.470;2022-07-30T00:40:45;24.60;64.40
22006;DHT22;11167;46.988;15.470;2022-07-30T00:42:47;24.60;64.40
22006;DHT22;11167;46.988;15.470;2022-07-30T00:44:48;24.60;64.50
22006;DHT22;11167;46.988;15.470;2022-07-30T00:46:49;24.50;63.70
22006;DHT22;11167;46.988;15.470;2022-07-30T00:48:50;24.50;64.50
22006;DHT22;11167;46.988;15.470;2022-07-30T00:50:52;24.50;64.50
22006;DHT22;11167;46.988;15.470;2022-07-30T00:52:53;24.50;64.60
22006;DHT22;11167;46.988;15.470;2022-07-30T00:54:54;24.50;64.60
22006;DHT22;11167;46.988;15.470;2022-07-30T00:56:55;24.40;64.60
22006;DHT22;11167;46.988;15.470;2022-07-30T00:58:56;24.40;64.60
22006;DHT22;11167;46.988;15.470;2022-07-30T01:00:57;24.40;64.60
22006;DHT22;11167;46.988;15.470;2022-07-30T01:02:59;24.40;64.70
22006;DHT22;11167;46.988;15.470;2022-07-30T01:05:00;24.40;64.60
22006;DHT22;11167;46.988;15.470;2022-07-30T01:07:01;24.40;64.60
22006;DHT22;11167;46.988;15.470;2022-07-30T01:09:02;24.40;64.60
22006;DHT22;11167;46.988;15.470;2022-07-30T01:11:03;24.30;64.60
22006;DHT22;11167;46.988;15.470;2022-07-30T01:13:05;24.30;64.60
22006;DHT22;11167;46.988;15.470;2022-07-30T01:15:09;24.30;64.60
22006;DHT22;11167;46.988;15.470;2022-07-30T01:17:10;24.30;64.60
22006;DHT22;11167;46.988;15.470;2022-07-30T01:19:20;24.30;64.70
22006;DHT22;11167;46.988;15.470;2022-07-30T01:21:43;24.20;64.60
22006;DHT22;11167;46.988;15.470;2022-07-30T01:23:46;24.20;64.60
22006;DHT22;11167;46.988;15.470;2022-07-30T01:28:03;24.20;64.70
22006;DHT22;11167;46.988;15.470;2022-07-30T01:30:07;24.20;64.80
22006;DHT22;11167;46.988;15.470;2022-07-30T01:32:09;24.10;64.70
22006;DHT22;11167;46.988;15.470;2022-07-30T01:34:13;24.10;64.70
22006;DHT22;11167;46.988;15.470;2022-07-30T01:36:17;24.10;64.70
22006;DHT22;11167;46.988;15.470;2022-07-30T01:38:21;24.10;64.70
22006;DHT22;11167;46.988;15.470;2022-07-30T01:40:22;24.00;64.70
22006;DHT22;11167;46.988;15.470;2022-07-30T01:42:26;24.00;64.80
22006;DHT22;11167;46.988;15.470;2022-07-30T01:44:28;24.00;64.90
22006;DHT22;11167;46.988;15.470;2022-07-30T01:46:30;24.00;64.90
22006;DHT22;11167;46.988;15.470;2022-07-30T01:48:34;24.00;64.90
22006;DHT22;11167;46.988;15.470;2022-07-30T01:50:37;24.00;64.90
22006;DHT22;11167;46.988;15.470;2022-07-30T01:52:40;23.90;64.80
22006;DHT22;11167;46.988;15.470;2022-07-30T01:54:44;23.90;64.90
22006;DHT22;11167;46.988;15.470;2022-07-30T01:56:47;23.90;64.90
22006;DHT22;11167;46.988;15.470;2022-07-30T01:58:51;23.90;65.00
22006;DHT22;11167;46.988;15.470;2022-07-30T02:00:54;23.80;64.90
22006;DHT22;11167;46.988;15.470;2022-07-30T02:02:56;23.90;65.00
22006;DHT22;11167;46.988;15.470;2022-07-30T02:04:58;23.80;65.00
22006;DHT22;11167;46.988;15.470;2022-07-30T02:07:27;23.80;65.00
22006;DHT22;11167;46.988;15.470;2022-07-30T02:09:28;23.80;65.00
22006;DHT22;11167;46.988;15.470;2022-07-30T02:11:36;23.80;65.00
22006;DHT22;11167;46.988;15.470;2022-07-30T02:13:56;23.70;64.90
22006;DHT22;11167;46.988;15.470;2022-07-30T02:16:23;23.80;65.00
22006;DHT22;11167;46.988;15.470;2022-07-30T02:20:34;23.70;65.00
22006;DHT22;11167;46.988;15.470;2022-07-30T02:22:37;23.70;65.00
22006;DHT22;11167;46.988;15.470;2022-07-30T02:24:40;23.70;65.00
22006;DHT22;11167;46.988;15.470;2022-07-30T02:27:03;23.70;65.00
22006;DHT22;11167;46.988;15.470;2022-07-30T02:29:06;23.60;65.00
22006;DHT22;11167;46.988;15.470;2022-07-30T02:31:10;23.70;65.10
22006;DHT22;11167;46.988;15.470;2022-07-30T02:33:14;23.70;65.10
22006;DHT22;11167;46.988;15.470;2022-07-30T02:35:19;23.60;65.00
22006;DHT22;11167;46.988;15.470;2022-07-30T02:37:21;23.60;65.20
22006;DHT22;11167;46.988;15.470;2022-07-30T02:39:25;23.60;65.10
22006;DHT22;11167;46.988;15.470;2022-07-30T02:41:28;23.60;65.20
22006;DHT22;11167;46.988;15.470;2022-07-30T02:43:30;23.60;65.20
22006;DHT22;11167;46.988;15.470;2022-07-30T02:45:33;23.60;65.20
22006;DHT22;11167;46.988;15.470;2022-07-30T02:47:37;23.60;65.40
22006;DHT22;11167;46.988;15.470;2022-07-30T02:49:41;23.60;65.30
22006;DHT22;11167;46.988;15.470;2022-07-30T02:51:45;23.60;65.20
22006;DHT22;11167;46.988;15.470;2022-07-30T02:53:48;23.50;65.20
22006;DHT22;11167;46.988;15.470;2022-07-30T02:55:52;23.50;65.20
22006;DHT22;11167;46.988;15.470;2022-07-30T02:57:56;23.50;65.20
22006;DHT22;11167;46.988;15.470;2022-07-30T03:00:00;23.50;65.20
22006;DHT22;11167;46.988;15.470;2022-07-30T03:02:02;23.50;65.20
22006;DHT22;11167;46.988;15.470;2022-07-30T03:04:05;23.50;65.40
22006;DHT22;11167;46.988;15.470;2022-07-30T03:06:08;23.40;65.40
22006;DHT22;11167;46.988;15.470;2022-07-30T03:08:10;23.40;65.30
22006;DHT22;11167;46.988;15.470;2022-07-30T03:10:12;23.40;65.30
22006;DHT22;11167;46.988;15.470;2022-07-30T03:12:15;23.40;65.30
22006;DHT22;11167;46.988;15.470;2022-07-30T03:14:16;23.40;65.20
22006;DHT22;11167;46.988;15.470;2022-07-30T03:16:18;23.40;65.20
22006;DHT22;11167;46.988;15.470;2022-07-30T03:18:21;23.40;65.20
22006;DHT22;11167;46.988;15.470;2022-07-30T03:20:25;23.40;65.20
22006;DHT22;11167;46.988;15.470;2022-07-30T03:22:28;23.40;65.30
22006;DHT22;11167;46.988;15.470;2022-07-30T03:24:29;23.40;65.30
22006;DHT22;11167;46.988;15.470;2022-07-30T03:26:33;23.40;65.30
22006;DHT22;11167;46.988;15.470;2022-07-30T03:28:37;23.30;65.20
22006;DHT22;11167;46.988;15.470;2022-07-30T03:30:40;23.40;65.30
22006;DHT22;11167;46.988;15.470;2022-07-30T03:32:44;23.30;65.30
22006;DHT22;11167;46.988;15.470;2022-07-30T03:34:46;23.30;65.30
22006;DHT22;11167;46.988;15.470;2022-07-30T03:36:48;23.30;65.30
22006;DHT22;11167;46.988;15.470;2022-07-30T03:38:50;23.30;65.40
22006;DHT22;11167;46.988;15.470;2022-07-30T03:40:52;23.30;65.40
22006;DHT22;11167;46.988;15.470;2022-07-30T03:42:54;23.30;65.40
22006;DHT22;11167;46.988;15.470;2022-07-30T03:44:56;23.30;65.40
22006;DHT22;11167;46.988;15.470;2022-07-30T03:46:58;23.30;65.40
22006;DHT22;11167;46.988;15.470;2022-07-30T03:49:00;23.30;65.40
22006;DHT22;11167;46.988;15.470;2022-07-30T03:51:02;23.30;65.50
22006;DHT22;11167;46.988;15.470;2022-07-30T03:53:06;23.30;65.50
22006;DHT22;11167;46.988;15.470;2022-07-30T03:55:10;23.20;65.50
22006;DHT22;11167;46.988;15.470;2022-07-30T03:57:12;23.20;65.50
22006;DHT22;11167;46.988;15.470;2022-07-30T03:59:13;23.20;65.50
22006;DHT22;11167;46.988;15.470;2022-07-30T04:01:15;23.20;65.50
22006;DHT22;11167;46.988;15.470;2022-07-30T04:03:25;23.20;66.10
22006;DHT22;11167;46.988;15.470;2022-07-30T04:05:26;23.20;65.50
22006;DHT22;11167;46.988;15.470;2022-07-30T04:07:28;23.20;65.50
22006;DHT22;11167;46.988;15.470;2022-07-30T04:09:29;23.20;65.50
22006;DHT22;11167;46.988;15.470;2022-07-30T04:11:30;23.10;65.60
22006;DHT22;11167;46.988;15.470;2022-07-30T04:13:31;23.10;65.50
22006;DHT22;11167;46.988;15.470;2022-07-30T04:15:36;23.20;65.70
22006;DHT22;11167;46.988;15.470;2022-07-30T04:17:43;23.10;65.60
22006;DHT22;11167;46.988;15.470;2022-07-30T04:19:50;23.10;65.60
22006;DHT22;11167;46.988;15.470;2022-07-30T04:21:53;23.10;65.60
22006;DHT22;11167;46.988;15.470;2022-07-30T04:23:57;23.10;65.70
22006;DHT22;11167;46.988;15.470;2022-07-30T04:26:00;23.10;65.70
22006;DHT22;11167;46.988;15.470;2022-07-30T04:28:03;23.10;65.80
22006;DHT22;11167;46.988;15.470;2022-07-30T04:30:06;23.10;65.70
22006;DHT22;11167;46.988;15.470;2022-07-30T04:32:08;23.10;65.80
22006;DHT22;11167;46.988;15.470;2022-07-30T04:34:13;23.10;65.80
22006;DHT22;11167;46.988;15.470;2022-07-30T04:36:14;23.10;65.80
22006;DHT22;11167;46.988;15.470;2022-07-30T04:38:16;23.10;65.80
22006;DHT22;11167;46.988;15.470;2022-07-30T04:40:17;23.00;65.70
22006;DHT22;11167;46.988;15.470;2022-07-30T04:42:23;23.00;65.70
22006;DHT22;11167;46.988;15.470;2022-07-30T04:44:21;23.00;65.80
22006;DHT22;11167;46.988;15.470;2022-07-30T04:46:23;23.00;65.80
22006;DHT22;11167;46.988;15.470;2022-07-30T04:48:24;23.00;66.20
22006;DHT22;11167;46.988;15.470;2022-07-30T04:50:28;23.00;65.80
22006;DHT22;11167;46.988;15.470;2022-07-30T04:52:29;23.00;65.80
22006;DHT22;11167;46.988;15.470;2022-07-30T04:54:37;23.00;65.90
22006;DHT22;11167;46.988;15.470;2022-07-30T04:56:36;23.00;65.90
22006;DHT22;11167;46.988;15.470;2022-07-30T04:58:38;23.00;65.90
22006;DHT22;11167;46.988;15.470;2022-07-30T05:00:41;23.00;66.70
22006;DHT22;11167;46.988;15.470;2022-07-30T05:02:45;23.00;65.90
22006;DHT22;11167;46.988;15.470;2022-07-30T05:04:48;23.00;65.90
22006;DHT22;11167;46.988;15.470;2022-07-30T05:06:50;22.90;65.90
22006;DHT22;11167;46.988;15.470;2022-07-30T05:08:52;22.90;65.90
22006;DHT22;11167;46.988;15.470;2022-07-30T05:10:53;22.90;65.90
22006;DHT22;11167;46.988;15.470;2022-07-30T05:12:55;22.90;65.90
22006;DHT22;11167;46.988;15.470;2022-07-30T05:14:56;22.90;65.90
22006;DHT22;11167;46.988;15.470;2022-07-30T05:16:58;22.90;65.90
22006;DHT22;11167;46.988;15.470;2022-07-30T05:18:59;22.90;65.90
22006;DHT22;11167;46.988;15.470;2022-07-30T05:21:00;22.90;65.90
22006;DHT22;11167;46.988;15.470;2022-07-30T05:23:02;22.90;65.90
22006;DHT22;11167;46.988;15.470;2022-07-30T05:25:04;22.90;66.00
22006;DHT22;11167;46.988;15.470;2022-07-30T05:27:05;22.90;65.90
22006;DHT22;11167;46.988;15.470;2022-07-30T05:29:06;22.90;66.00
22006;DHT22;11167;46.988;15.470;2022-07-30T05:31:08;22.90;66.10
22006;DHT22;11167;46.988;15.470;2022-07-30T05:33:09;22.90;66.00
22006;DHT22;11167;46.988;15.470;2022-07-30T05:35:10;22.90;66.10
22006;DHT22;11167;46.988;15.470;2022-07-30T05:37:11;22.90;66.10
22006;DHT22;11167;46.988;15.470;2022-07-30T05:39:12;22.90;66.10
22006;DHT22;11167;46.988;15.470;2022-07-30T05:41:14;22.90;66.10
22006;DHT22;11167;46.988;15.470;2022-07-30T05:43:15;22.80;66.00
22006;DHT22;11167;46.988;15.470;2022-07-30T05:45:16;22.80;66.00
22006;DHT22;11167;46.988;15.470;2022-07-30T05:47:17;22.80;66.00
22006;DHT22;11167;46.988;15.470;2022-07-30T05:49:20;22.80;66.10
22006;DHT22;11167;46.988;15.470;2022-07-30T05:51:21;22.80;66.10
22006;DHT22;11167;46.988;15.470;2022-07-30T05:53:23;22.80;66.10
22006;DHT22;11167;46.988;15.470;2022-07-30T05:55:24;22.80;66.10
22006;DHT22;11167;46.988;15.470;2022-07-30T05:57:25;22.80;66.10
22006;DHT22;11167;46.988;15.470;2022-07-30T05:59:26;22.80;66.10
22006;DHT22;11167;46.988;15.470;2022-07-30T06:01:27;22.80;66.10
22006;DHT22;11167;46.988;15.470;2022-07-30T06:03:29;22.80;66.20
22006;DHT22;11167;46.988;15.470;2022-07-30T06:05:30;22.70;66.10
22006;DHT22;11167;46.988;15.470;2022-07-30T06:07:32;22.70;66.10
22006;DHT22;11167;46.988;15.470;2022-07-30T06:09:33;22.80;66.20
22006;DHT22;11167;46.988;15.470;2022-07-30T06:11:34;22.80;66.20
22006;DHT22;11167;46.988;15.470;2022-07-30T06:13:36;22.70;66.10
22006;DHT22;11167;46.988;15.470;2022-07-30T06:15:38;22.80;67.10
22006;DHT22;11167;46.988;15.470;2022-07-30T06:17:44;22.80;66.20
22006;DHT22;11167;46.988;15.470;2022-07-30T06:19:45;22.70;66.20
22006;DHT22;11167;46.988;15.470;2022-07-30T06:21:46;22.70;66.10
22006;DHT22;11167;46.988;15.470;2022-07-30T06:23:47;22.70;66.20
22006;DHT22;11167;46.988;15.470;2022-07-30T06:25:49;22.70;66.20
22006;DHT22;11167;46.988;15.470;2022-07-30T06:27:50;22.70;66.20
22006;DHT22;11167;46.988;15.470;2022-07-30T06:29:51;22.70;66.20
22006;DHT22;11167;46.988;15.470;2022-07-30T06:31:53;22.70;66.20
22006;DHT22;11167;46.988;15.470;2022-07-30T06:33:54;22.70;66.20
22006;DHT22;11167;46.988;15.470;2022-07-30T06:35:56;22.70;66.20
22006;DHT22;11167;46.988;15.470;2022-07-30T06:37:58;22.70;66.20
22006;DHT22;11167;46.988;15.470;2022-07-30T06:39:59;22.70;66.20
22006;DHT22;11167;46.988;15.470;2022-07-30T06:42:00;22.70;66.20
22006;DHT22;11167;46.988;15.470;2022-07-30T06:44:02;22.70;66.30
22006;DHT22;11167;46.988;15.470;2022-07-30T06:46:03;22.70;65.50
22006;DHT22;11167;46.988;15.470;2022-07-30T06:48:04;22.70;66.40
22006;DHT22;11167;46.988;15.470;2022-07-30T06:50:07;22.70;66.30
22006;DHT22;11167;46.988;15.470;2022-07-30T06:52:09;22.70;66.30
22006;DHT22;11167;46.988;15.470;2022-07-30T06:54:10;22.70;66.30
22006;DHT22;11167;46.988;15.470;2022-07-30T06:56:12;22.70;66.30
22006;DHT22;11167;46.988;15.470;2022-07-30T06:58:13;22.70;66.30
22006;DHT22;11167;46.988;15.470;2022-07-30T07:00:14;22.70;66.40
22006;DHT22;11167;46.988;15.470;2022-07-30T07:02:15;22.70;66.40
22006;DHT22;11167;46.988;15.470;2022-07-30T07:04:16;22.70;66.40
22006;DHT22;11167;46.988;15.470;2022-07-30T07:06:18;22.70;66.40
22006;DHT22;11167;46.988;15.470;2022-07-30T07:08:19;22.70;66.50
22006;DHT22;11167;46.988;15.470;2022-07-30T07:10:20;22.70;67.20
22006;DHT22;11167;46.988;15.470;2022-07-30T07:12:21;22.70;66.50
22006;DHT22;11167;46.988;15.470;2022-07-30T07:14:23;22.70;67.30
22006;DHT22;11167;46.988;15.470;2022-07-30T07:16:24;22.70;67.20
22006;DHT22;11167;46.988;15.470;2022-07-30T07:18:25;22.70;66.50
22006;DHT22;11167;46.988;15.470;2022-07-30T07:20:26;22.70;66.50
22006;DHT22;11167;46.988;15.470;2022-07-30T07:22:27;22.70;66.50
22006;DHT22;11167;46.988;15.470;2022-07-30T07:24:28;22.70;66.50
22006;DHT22;11167;46.988;15.470;2022-07-30T07:26:30;22.70;66.50
22006;DHT22;11167;46.988;15.470;2022-07-30T07:28:31;22.60;66.50
22006;DHT22;11167;46.988;15.470;2022-07-30T07:30:32;22.70;66.50
22006;DHT22;11167;46.988;15.470;2022-07-30T07:32:35;22.60;66.50
22006;DHT22;11167;46.988;15.470;2022-07-30T07:34:36;22.60;66.50
22006;DHT22;11167;46.988;15.470;2022-07-30T07:36:37;22.70;66.60
22006;DHT22;11167;46.988;15.470;2022-07-30T07:38:39;22.60;66.50
22006;DHT22;11167;46.988;15.470;2022-07-30T07:40:40;22.70;66.60
22006;DHT22;11167;46.988;15.470;2022-07-30T07:42:41;22.70;67.50
22006;DHT22;11167;46.988;15.470;2022-07-30T07:44:42;22.70;67.20
22006;DHT22;11167;46.988;15.470;2022-07-30T07:46:43;22.60;66.60
22006;DHT22;11167;46.988;15.470;2022-07-30T07:48:44;22.70;66.40
22006;DHT22;11167;46.988;15.470;2022-07-30T07:50:46;22.70;66.70
22006;DHT22;11167;46.988;15.470;2022-07-30T07:52:47;22.60;66.70
22006;DHT22;11167;46.988;15.470;2022-07-30T07:54:49;22.60;66.60
22006;DHT22;11167;46.988;15.470;2022-07-30T07:56:50;22.60;66.60
22006;DHT22;11167;46.988;15.470;2022-07-30T07:58:51;22.60;66.60
22006;DHT22;11167;46.988;15.470;2022-07-30T08:00:53;22.60;66.60
22006;DHT22;11167;46.988;15.470;2022-07-30T08:02:54;22.60;66.60
22006;DHT22;11167;46.988;15.470;2022-07-30T08:04:56;22.60;67.60
22006;DHT22;11167;46.988;15.470;2022-07-30T08:06:57;22.60;67.00
22006;DHT22;11167;46.988;15.470;2022-07-30T08:08:58;22.60;66.70
22006;DHT22;11167;46.988;15.470;2022-07-30T08:11:01;22.60;66.80
22006;DHT22;11167;46.988;15.470;2022-07-30T08:13:03;22.60;66.80
22006;DHT22;11167;46.988;15.470;2022-07-30T08:15:06;22.60;66.80
22006;DHT22;11167;46.988;15.470;2022-07-30T08:17:07;22.60;66.80
22006;DHT22;11167;46.988;15.470;2022-07-30T08:19:09;22.60;66.80
22006;DHT22;11167;46.988;15.470;2022-07-30T08:21:10;22.60;67.40
22006;DHT22;11167;46.988;15.470;2022-07-30T08:23:11;22.60;66.80
22006;DHT22;11167;46.988;15.470;2022-07-30T08:25:12;22.60;67.40
22006;DHT22;11167;46.988;15.470;2022-07-30T08:27:13;22.60;66.80
22006;DHT22;11167;46.988;15.470;2022-07-30T08:29:14;22.60;66.80
22006;DHT22;11167;46.988;15.470;2022-07-30T08:31:15;22.60;66.80
22006;DHT22;11167;46.988;15.470;2022-07-30T08:33:17;22.60;66.80
22006;DHT22;11167;46.988;15.470;2022-07-30T08:35:18;22.60;66.90
22006;DHT22;11167;46.988;15.470;2022-07-30T08:37:19;22.60;67.70
22006;DHT22;11167;46.988;15.470;2022-07-30T08:39:21;22.70;67.00
22006;DHT22;11167;46.988;15.470;2022-07-30T08:41:23;22.60;66.90
22006;DHT22;11167;46.988;15.470;2022-07-30T08:43:24;22.60;66.90
22006;DHT22;11167;46.988;15.470;2022-07-30T08:45:27;22.60;66.90
22006;DHT22;11167;46.988;15.470;2022-07-30T08:47:32;22.70;67.00
22006;DHT22;11167;46.988;15.470;2022-07-30T08:49:34;22.70;67.00
22006;DHT22;11167;46.988;15.470;2022-07-30T08:51:37;22.70;67.00
22006;DHT22;11167;46.988;15.470;2022-07-30T08:53:38;22.60;67.00
22006;DHT22;11167;46.988;15.470;2022-07-30T08:55:40;22.60;67.00
22006;DHT22;11167;46.988;15.470;2022-07-30T08:57:41;22.60;67.00
22006;DHT22;11167;46.988;15.470;2022-07-30T08:59:44;22.70;67.10
22006;DHT22;11167;46.988;15.470;2022-07-30T09:01:45;22.60;67.00
22006;DHT22;11167;46.988;15.470;2022-07-30T09:03:46;22.60;67.00
22006;DHT22;11167;46.988;15.470;2022-07-30T09:05:48;22.70;67.20
22006;DHT22;11167;46.988;15.470;2022-07-30T09:07:49;22.70;67.20
22006;DHT22;11167;46.988;15.470;2022-07-30T09:09:50;22.70;67.20
22006;DHT22;11167;46.988;15.470;2022-07-30T09:11:51;22.70;67.50
22006;DHT22;11167;46.988;15.470;2022-07-30T09:13:52;22.70;67.20
22006;DHT22;11167;46.988;15.470;2022-07-30T09:15:54;22.70;67.20
22006;DHT22;11167;46.988;15.470;2022-07-30T09:17:58;22.70;67.20
22006;DHT22;11167;46.988;15.470;2022-07-30T09:20:04;22.70;67.20
22006;DHT22;11167;46.988;15.470;2022-07-30T09:22:06;22.70;67.20
22006;DHT22;11167;46.988;15.470;2022-07-30T09:24:09;22.70;67.20
22006;DHT22;11167;46.988;15.470;2022-07-30T09:26:11;22.70;67.20
22006;DHT22;11167;46.988;15.470;2022-07-30T09:28:13;22.70;67.20
22006;DHT22;11167;46.988;15.470;2022-07-30T09:30:15;22.70;67.30
22006;DHT22;11167;46.988;15.470;2022-07-30T09:32:16;22.70;67.30
22006;DHT22;11167;46.988;15.470;2022-07-30T09:34:31;22.90;67.40
22006;DHT22;11167;46.988;15.470;2022-07-30T09:36:33;22.70;67.30
22006;DHT22;11167;46.988;15.470;2022-07-30T09:38:48;22.70;67.30
22006;DHT22;11167;46.988;15.470;2022-07-30T09:40:50;22.70;67.40
22006;DHT22;11167;46.988;15.470;2022-07-30T09:43:06;22.70;67.40
22006;DHT22;11167;46.988;15.470;2022-07-30T09:45:10;22.80;67.40
22006;DHT22;11167;46.988;15.470;2022-07-30T09:47:36;22.70;67.40
22006;DHT22;11167;46.988;15.470;2022-07-30T09:49:35;22.70;67.40
22006;DHT22;11167;46.988;15.470;2022-07-30T09:51:37;22.70;67.40
22006;DHT22;11167;46.988;15.470;2022-07-30T09:53:55;22.70;67.40
22006;DHT22;11167;46.988;15.470;2022-07-30T09:55:59;22.80;67.50
22006;DHT22;11167;46.988;15.470;2022-07-30T09:58:03;22.70;67.40
22006;DHT22;11167;46.988;15.470;2022-07-30T10:00:20;22.80;67.50
22006;DHT22;11167;46.988;15.470;2022-07-30T10:02:30;22.80;67.60
22006;DHT22;11167;46.988;15.470;2022-07-30T10:04:31;22.80;67.50
22006;DHT22;11167;46.988;15.470;2022-07-30T10:06:34;22.80;67.50
22006;DHT22;11167;46.988;15.470;2022-07-30T10:08:48;22.80;67.60
22006;DHT22;11167;46.988;15.470;2022-07-30T10:10:49;22.80;67.50
22006;DHT22;11167;46.988;15.470;2022-07-30T10:13:00;22.80;67.60
22006;DHT22;11167;46.988;15.470;2022-07-30T10:14:59;22.80;67.60
22006;DHT22;11167;46.988;15.470;2022-07-30T10:17:03;22.90;67.70
22006;DHT22;11167;46.988;15.470;2022-07-30T10:19:04;22.80;67.60
22006;DHT22;11167;46.988;15.470;2022-07-30T10:21:07;22.90;67.70
22006;DHT22;11167;46.988;15.470;2022-07-30T10:23:08;22.90;67.70
22006;DHT22;11167;46.988;15.470;2022-07-30T10:25:10;22.90;67.70
22006;DHT22;11167;46.988;15.470;2022-07-30T10:27:12;23.00;67.80
22006;DHT22;11167;46.988;15.470;2022-07-30T10:29:17;23.00;67.80
22006;DHT22;11167;46.988;15.470;2022-07-30T10:31:19;23.00;67.80
22006;DHT22;11167;46.988;15.470;2022-07-30T10:33:28;23.00;67.80
22006;DHT22;11167;46.988;15.470;2022-07-30T10:35:28;23.00;67.80
22006;DHT22;11167;46.988;15.470;2022-07-30T10:37:30;23.00;67.80
22006;DHT22;11167;46.988;15.470;2022-07-30T10:39:46;23.10;67.90
22006;DHT22;11167;46.988;15.470;2022-07-30T10:47:00;23.10;68.00
22006;DHT22;11167;46.988;15.470;2022-07-30T10:49:12;23.10;67.90
22006;DHT22;11167;46.988;15.470;2022-07-30T10:51:14;23.10;67.90
22006;DHT22;11167;46.988;15.470;2022-07-30T10:55:35;23.10;68.00
22006;DHT22;11167;46.988;15.470;2022-07-30T10:57:55;23.10;68.00
22006;DHT22;11167;46.988;15.470;2022-07-30T11:04:25;23.20;68.00
22006;DHT22;11167;46.988;15.470;2022-07-30T11:06:27;23.20;68.00
22006;DHT22;11167;46.988;15.470;2022-07-30T11:08:37;23.20;68.00
22006;DHT22;11167;46.988;15.470;2022-07-30T11:10:39;23.20;68.00
22006;DHT22;11167;46.988;15.470;2022-07-30T11:16:56;23.30;68.10
22006;DHT22;11167;46.988;15.470;2022-07-30T11:19:09;23.30;68.10
22006;DHT22;11167;46.988;15.470;2022-07-30T11:21:17;23.30;68.10
22006;DHT22;11167;46.988;15.470;2022-07-30T11:32:31;23.40;68.10
22006;DHT22;11167;46.988;15.470;2022-07-30T11:34:32;23.40;68.30
22006;DHT22;11167;46.988;15.470;2022-07-30T11:36:34;23.40;68.10
22006;DHT22;11167;46.988;15.470;2022-07-30T11:38:49;23.40;68.10
22006;DHT22;11167;46.988;15.470;2022-07-30T11:45:22;23.40;68.10
22006;DHT22;11167;46.988;15.470;2022-07-30T11:47:26;23.40;68.30
22006;DHT22;11167;46.988;15.470;2022-07-30T11:49:35;23.40;68.30
22006;DHT22;11167;46.988;15.470;2022-07-30T11:51:39;23.40;68.20
22006;DHT22;11167;46.988;15.470;2022-07-30T11:53:40;23.50;68.30
22006;DHT22;11167;46.988;15.470;2022-07-30T11:55:45;23.50;68.30
22006;DHT22;11167;46.988;15.470;2022-07-30T11:57:47;23.50;68.30
22006;DHT22;11167;46.988;15.470;2022-07-30T11:59:55;23.50;68.30
22006;DHT22;11167;46.988;15.470;2022-07-30T12:01:57;23.50;68.30
22006;DHT22;11167;46.988;15.470;2022-07-30T12:04:06;23.60;68.30
22006;DHT22;11167;46.988;15.470;2022-07-30T12:06:14;23.60;68.40
22006;DHT22;11167;46.988;15.470;2022-07-30T12:08:14;23.60;68.30
22006;DHT22;11167;46.988;15.470;2022-07-30T12:10:17;23.60;68.40
22006;DHT22;11167;46.988;15.470;2022-07-30T12:12:20;23.60;68.40
22006;DHT22;11167;46.988;15.470;2022-07-30T12:14:23;23.60;68.30
22006;DHT22;11167;46.988;15.470;2022-07-30T12:16:26;23.60;68.40
22006;DHT22;11167;46.988;15.470;2022-07-30T12:18:28;23.60;68.40
22006;DHT22;11167;46.988;15.470;2022-07-30T12:20:30;23.60;68.40
22006;DHT22;11167;46.988;15.470;2022-07-30T12:22:32;23.70;68.40
22006;DHT22;11167;46.988;15.470;2022-07-30T12:24:34;23.70;68.10
22006;DHT22;11167;46.988;15.470;2022-07-30T12:26:35;23.70;68.40
22006;DHT22;11167;46.988;15.470;2022-07-30T12:28:36;23.70;68.20
22006;DHT22;11167;46.988;15.470;2022-07-30T12:30:39;23.70;68.60
22006;DHT22;11167;46.988;15.470;2022-07-30T12:32:42;23.70;68.40
22006;DHT22;11167;46.988;15.470;2022-07-30T12:34:56;23.70;68.40
22006;DHT22;11167;46.988;15.470;2022-07-30T12:37:06;23.70;68.40
22006;DHT22;11167;46.988;15.470;2022-07-30T12:39:16;23.70;68.40
22006;DHT22;11167;46.988;15.470;2022-07-30T12:41:12;23.80;68.50
22006;DHT22;11167;46.988;15.470;2022-07-30T12:43:13;23.80;68.60
22006;DHT22;11167;46.988;15.470;2022-07-30T12:45:31;23.80;68.60
22006;DHT22;11167;46.988;15.470;2022-07-30T12:47:33;23.80;68.60
22006;DHT22;11167;46.988;15.470;2022-07-30T12:49:35;23.80;68.60
22006;DHT22;11167;46.988;15.470;2022-07-30T12:51:48;23.80;68.60
22006;DHT22;11167;46.988;15.470;2022-07-30T12:53:41;23.90;68.70
22006;DHT22;11167;46.988;15.470;2022-07-30T12:55:42;23.90;68.80
22006;DHT22;11167;46.988;15.470;2022-07-30T13:00:05;23.90;68.60
22006;DHT22;11167;46.988;15.470;2022-07-30T13:02:08;23.90;68.60
22006;DHT22;11167;46.988;15.470;2022-07-30T13:04:10;24.00;68.70
22006;DHT22;11167;46.988;15.470;2022-07-30T13:06:20;23.90;68.70
22006;DHT22;11167;46.988;15.470;2022-07-30T13:10:54;24.00;68.70
22006;DHT22;11167;46.988;15.470;2022-07-30T13:12:55;24.00;67.90
22006;DHT22;11167;46.988;15.470;2022-07-30T13:14:57;24.00;68.80
22006;DHT22;11167;46.988;15.470;2022-07-30T13:16:59;24.00;68.80
22006;DHT22;11167;46.988;15.470;2022-07-30T13:19:03;24.00;68.80
22006;DHT22;11167;46.988;15.470;2022-07-30T13:21:05;24.00;68.80
22006;DHT22;11167;46.988;15.470;2022-07-30T13:23:08;24.10;68.80